createdAt,value
2023-01-01T00:00:09.789Z,10.60
2023-01-01T00:02:38.320Z,10.13
2023-01-01T00:05:09.255Z,12.70
2023-01-01T00:07:37.249Z,10.47
2023-01-01T00:10:23.909Z,10.60
2023-01-01T00:12:51.958Z,11.00
2023-01-01T00:15:20.208Z,13.20
2023-01-01T00:17:48.183Z,11.10
2023-01-01T00:20:17.633Z,11.30
2023-01-01T00:22:55.089Z,11.30
2023-01-01T00:25:24.434Z,11.00
2023-01-01T00:27:52.751Z,11.37
2023-01-01T00:30:20.757Z,10.90
2023-01-01T00:32:54.607Z,11.10
2023-01-01T00:35:25.654Z,10.90
2023-01-01T00:37:54.763Z,11.77
2023-01-01T00:40:22.836Z,10.33
2023-01-01T00:42:51.254Z,12.17
2023-01-01T00:45:22.203Z,10.87
2023-01-01T00:47:52.336Z,10.07
2023-01-01T00:50:20.737Z,11.83
2023-01-01T00:52:50.863Z,10.10
2023-01-01T00:55:19.200Z,10.53
2023-01-01T00:57:47.208Z,14.67
2023-01-01T01:00:16.781Z,11.17
2023-01-01T01:02:44.915Z,10.80
2023-01-01T01:05:13.034Z,10.50
2023-01-01T01:07:41.756Z,9.33
2023-01-01T01:10:12.055Z,13.00
2023-01-01T01:12:40.587Z,13.43
2023-01-01T01:15:10.676Z,10.50
2023-01-01T01:17:38.674Z,13.10
2023-01-01T01:20:08.215Z,11.53
2023-01-01T01:22:36.430Z,10.37
2023-01-01T01:25:05.169Z,11.07
2023-01-01T01:27:34.608Z,11.33
2023-01-01T01:30:02.581Z,10.60
2023-01-01T01:32:30.584Z,12.27
2023-01-01T01:34:58.569Z,10.70
2023-01-01T01:37:26.533Z,10.97
2023-01-01T01:39:54.568Z,10.93
2023-01-01T01:42:23.142Z,15.33
2023-01-01T01:44:57.746Z,10.50
2023-01-01T01:47:32.398Z,11.30
2023-01-01T01:50:08.151Z,22.83
2023-01-01T01:52:39.329Z,13.23
2023-01-01T01:55:10.738Z,15.47
2023-01-01T01:57:40.800Z,12.03
2023-01-01T02:00:12.337Z,19.33
2023-01-01T02:02:47.635Z,13.83
2023-01-01T02:05:16.005Z,15.37
2023-01-01T02:07:44.161Z,13.33
2023-01-01T02:10:12.219Z,13.30
2023-01-01T02:12:40.377Z,19.30
2023-01-01T02:15:11.017Z,19.77
2023-01-01T02:17:50.701Z,17.30
2023-01-01T02:20:43.655Z,19.70
2023-01-01T02:23:50.702Z,10.73
2023-01-01T02:26:39.727Z,20.27
2023-01-01T02:29:24.157Z,12.87
2023-01-01T02:32:01.558Z,19.67
2023-01-01T02:34:36.022Z,17.20
2023-01-01T02:37:08.701Z,11.13
2023-01-01T02:39:40.837Z,15.30
2023-01-01T02:42:09.273Z,12.67
2023-01-01T02:44:44.651Z,21.20
2023-01-01T02:47:15.652Z,9.80
2023-01-01T02:49:56.337Z,14.17
2023-01-01T02:52:47.115Z,8.83
2023-01-01T02:55:28.406Z,10.00
2023-01-01T02:58:25.229Z,10.63
2023-01-01T03:01:01.825Z,10.83
2023-01-01T03:03:39.268Z,10.27
2023-01-01T03:06:24.552Z,9.70
2023-01-01T03:09:02.361Z,8.80
2023-01-01T03:11:39.553Z,11.60
2023-01-01T03:14:15.626Z,9.00
2023-01-01T03:16:50.274Z,7.77
2023-01-01T03:19:21.450Z,9.67
2023-01-01T03:21:55.013Z,9.30
2023-01-01T03:24:31.032Z,8.27
2023-01-01T03:27:03.835Z,8.73
2023-01-01T03:29:37.087Z,11.40
2023-01-01T03:32:08.766Z,10.07
2023-01-01T03:34:41.827Z,8.47
2023-01-01T03:37:16.090Z,13.20
2023-01-01T03:39:48.496Z,7.27
2023-01-01T03:42:23.309Z,7.70
2023-01-01T03:44:57.842Z,8.33
2023-01-01T03:47:27.226Z,9.97
2023-01-01T03:49:55.805Z,8.67
2023-01-01T03:52:35.138Z,10.17
2023-01-01T03:55:08.942Z,8.90
2023-01-01T03:57:45.309Z,9.00
2023-01-01T04:00:17.029Z,7.90
2023-01-01T04:02:53.326Z,7.93
2023-01-01T04:05:22.195Z,9.63
2023-01-01T04:07:52.087Z,7.00
2023-01-01T04:10:20.851Z,7.53
2023-01-01T04:12:51.765Z,9.70
2023-01-01T04:15:22.806Z,12.77
2023-01-01T04:17:52.509Z,8.00
2023-01-01T04:20:21.570Z,6.93
2023-01-01T04:22:49.605Z,7.60
2023-01-01T04:25:18.258Z,9.23
2023-01-01T04:27:46.362Z,7.13
2023-01-01T04:30:15.923Z,8.77
2023-01-01T04:32:44.497Z,7.97
2023-01-01T04:35:15.724Z,6.67
2023-01-01T04:37:45.777Z,7.87
2023-01-01T04:40:14.912Z,6.23
2023-01-01T04:42:43.336Z,6.73
2023-01-01T04:45:14.857Z,7.20
2023-01-01T04:47:43.079Z,10.23
2023-01-01T04:50:12.733Z,7.77
2023-01-01T04:52:40.798Z,8.17
2023-01-01T04:55:09.915Z,5.77
2023-01-01T04:57:37.939Z,7.20
2023-01-01T05:00:07.795Z,6.50
2023-01-01T05:02:35.995Z,7.73
2023-01-01T05:05:04.544Z,6.20
2023-01-01T05:07:34.295Z,9.53
2023-01-01T05:10:02.326Z,7.00
2023-01-01T05:12:31.048Z,7.23
2023-01-01T05:14:59.032Z,6.73
2023-01-01T05:17:27.004Z,6.13
2023-01-01T05:19:54.959Z,8.20
2023-01-01T05:22:22.952Z,5.63
2023-01-01T05:24:52.335Z,5.63
2023-01-01T05:27:20.356Z,12.20
2023-01-01T05:29:48.322Z,7.00
2023-01-01T05:34:43.299Z,5.37
2023-01-01T05:37:11.417Z,4.80
2023-01-01T05:39:39.388Z,5.10
2023-01-01T05:42:08.695Z,7.63
2023-01-01T05:44:36.652Z,4.80
2023-01-01T05:47:04.918Z,10.70
2023-01-01T05:49:32.900Z,5.83
2023-01-01T05:52:00.905Z,7.33
2023-01-01T05:54:28.898Z,5.90
2023-01-01T05:56:57.042Z,4.77
2023-01-01T05:59:26.571Z,4.97
2023-01-01T06:01:54.863Z,4.70
2023-01-01T06:04:23.122Z,6.17
2023-01-01T06:06:51.209Z,9.90
2023-01-01T06:09:19.232Z,6.07
2023-01-01T06:11:56.098Z,5.53
2023-01-01T06:14:24.165Z,4.50
2023-01-01T06:16:53.569Z,11.30
2023-01-01T06:19:21.618Z,4.93
2023-01-01T06:21:49.716Z,4.17
2023-01-01T06:24:17.749Z,6.53
2023-01-01T06:26:45.845Z,4.37
2023-01-01T06:29:13.846Z,4.80
2023-01-01T06:31:41.846Z,5.07
2023-01-01T06:34:11.202Z,4.10
2023-01-01T06:36:39.245Z,13.93
2023-01-01T06:39:07.624Z,5.80
2023-01-01T06:41:36.025Z,4.53
2023-01-01T06:44:04.492Z,5.70
2023-01-01T06:46:34.191Z,7.23
2023-01-01T06:49:05.179Z,3.80
2023-01-01T06:51:38.350Z,5.87
2023-01-01T06:54:07.842Z,5.63
2023-01-01T06:56:36.495Z,4.53
2023-01-01T06:59:05.091Z,6.53
2023-01-01T07:01:36.445Z,5.30
2023-01-01T07:04:08.068Z,3.97
2023-01-01T07:06:38.255Z,4.70
2023-01-01T07:09:07.911Z,5.40
2023-01-01T07:11:36.457Z,3.60
2023-01-01T07:14:05.112Z,3.50
2023-01-01T07:16:33.504Z,6.53
2023-01-01T07:19:01.911Z,5.30
2023-01-01T07:21:32.288Z,6.23
2023-01-01T07:24:04.468Z,4.70
2023-01-01T07:26:33.901Z,3.50
2023-01-01T07:29:07.945Z,6.20
2023-01-01T07:31:37.505Z,5.10
2023-01-01T07:34:06.242Z,6.20
2023-01-01T07:36:35.009Z,3.47
2023-01-01T07:39:04.332Z,6.03
2023-01-01T07:41:32.517Z,4.03
2023-01-01T07:44:00.518Z,3.67
2023-01-01T07:46:29.362Z,6.97
2023-01-01T07:48:57.553Z,6.03
2023-01-01T07:51:25.665Z,12.23
2023-01-01T07:53:53.743Z,4.53
2023-01-01T07:56:23.103Z,7.60
2023-01-01T07:58:51.268Z,13.00
2023-01-01T08:01:20.114Z,8.13
2023-01-01T08:03:53.598Z,9.50
2023-01-01T08:06:22.209Z,6.23
2023-01-01T08:08:50.382Z,9.40
2023-01-01T08:11:18.344Z,10.30
2023-01-01T08:13:47.703Z,12.30
2023-01-01T08:16:15.782Z,4.50
2023-01-01T08:18:43.826Z,6.30
2023-01-01T08:21:11.849Z,4.53
2023-01-01T08:23:39.804Z,10.23
2023-01-01T08:26:07.843Z,5.03
2023-01-01T08:28:36.798Z,6.03
2023-01-01T08:31:06.352Z,3.57
2023-01-01T08:33:34.520Z,4.20
2023-01-01T08:36:02.737Z,4.90
2023-01-01T08:38:30.737Z,3.93
2023-01-01T08:40:58.751Z,5.30
2023-01-01T08:43:26.766Z,6.13
2023-01-01T08:45:54.848Z,11.70
2023-01-01T08:48:30.400Z,6.63
2023-01-01T08:51:01.278Z,9.57
2023-01-01T08:53:30.260Z,7.97
2023-01-01T08:55:59.154Z,5.33
2023-01-01T08:58:27.602Z,6.50
2023-01-01T09:00:55.795Z,4.50
2023-01-01T09:03:25.312Z,6.70
2023-01-01T09:05:53.527Z,4.70
2023-01-01T09:08:22.474Z,10.70
2023-01-01T09:10:51.560Z,9.10
2023-01-01T09:13:22.647Z,11.13
2023-01-01T09:15:51.185Z,5.00
2023-01-01T09:18:19.299Z,4.43
2023-01-01T09:20:48.790Z,4.60
2023-01-01T09:23:17.530Z,16.53
2023-01-01T09:25:45.589Z,6.47
2023-01-01T09:28:17.216Z,7.63
2023-01-01T09:30:47.178Z,4.70
2023-01-01T09:33:15.198Z,7.57
2023-01-01T09:35:44.360Z,10.00
2023-01-01T09:38:14.587Z,7.83
2023-01-01T09:40:56.269Z,5.93
2023-01-01T09:43:39.324Z,8.80
2023-01-01T09:46:11.029Z,5.47
2023-01-01T09:48:56.317Z,6.03
2023-01-01T09:51:27.581Z,3.57
2023-01-01T09:54:02.830Z,2.73
2023-01-01T09:56:32.655Z,5.17
2023-01-01T09:59:00.726Z,3.93
2023-01-01T10:01:40.656Z,6.47
2023-01-01T10:04:27.541Z,5.70
2023-01-01T10:07:04.889Z,4.23
2023-01-01T10:09:43.962Z,8.53
2023-01-01T10:12:20.973Z,5.83
2023-01-01T10:14:57.992Z,3.67
2023-01-01T10:17:38.325Z,6.87
2023-01-01T10:20:16.701Z,3.50
2023-01-01T10:22:48.432Z,4.07
2023-01-01T10:25:20.924Z,3.10
2023-01-01T10:27:59.347Z,5.20
2023-01-01T10:30:29.870Z,4.47
2023-01-01T10:32:59.042Z,5.20
2023-01-01T10:35:32.937Z,9.60
2023-01-01T10:38:02.413Z,5.30
2023-01-01T10:40:32.878Z,5.03
2023-01-01T10:43:03.843Z,5.87
2023-01-01T10:45:35.411Z,4.00
2023-01-01T10:48:16.805Z,2.63
2023-01-01T10:50:49.728Z,7.13
2023-01-01T10:53:26.061Z,12.37
2023-01-01T10:56:03.924Z,3.93
2023-01-01T10:58:39.348Z,13.10
2023-01-01T11:01:10.581Z,3.13
2023-01-01T11:03:39.576Z,4.43
2023-01-01T11:06:19.844Z,5.10
2023-01-01T11:08:51.299Z,4.23
2023-01-01T11:11:27.900Z,8.83
2023-01-01T11:14:00.195Z,5.00
2023-01-01T11:16:29.879Z,3.17
2023-01-01T11:19:04.955Z,5.53
2023-01-01T11:21:34.607Z,3.90
2023-01-01T11:24:20.508Z,3.43
2023-01-01T11:26:54.652Z,4.70
2023-01-01T11:29:27.931Z,4.80
2023-01-01T11:31:57.703Z,4.30
2023-01-01T11:34:39.928Z,5.07
2023-01-01T11:37:20.147Z,4.60
2023-01-01T11:39:50.484Z,5.10
2023-01-01T11:42:24.020Z,5.30
2023-01-01T11:44:55.693Z,7.17
2023-01-01T11:47:30.249Z,8.33
2023-01-01T11:50:05.719Z,12.37
2023-01-01T11:52:39.912Z,23.57
2023-01-01T11:55:28.345Z,8.90
2023-01-01T11:58:05.451Z,12.40
2023-01-01T12:00:36.945Z,12.90
2023-01-01T12:03:16.855Z,15.47
2023-01-01T12:05:51.157Z,12.33
2023-01-01T12:08:29.586Z,14.40
2023-01-01T12:11:05.195Z,14.90
2023-01-01T12:13:46.087Z,17.00
2023-01-01T12:16:19.563Z,11.83
2023-01-01T12:18:59.271Z,14.70
2023-01-01T12:21:29.973Z,13.87
2023-01-01T12:23:58.088Z,17.90
2023-01-01T12:26:31.615Z,16.27
2023-01-01T12:29:39.481Z,12.00
2023-01-01T12:32:15.645Z,15.53
2023-01-01T12:34:54.358Z,15.97
2023-01-01T12:37:34.757Z,19.27
2023-01-01T12:40:33.564Z,18.03
2023-01-01T12:43:04.054Z,16.30
2023-01-01T12:46:21.686Z,18.33
2023-01-01T12:49:12.329Z,15.50
2023-01-01T12:51:51.491Z,15.03
2023-01-01T12:55:15.824Z,15.83
2023-01-01T12:57:51.628Z,15.53
2023-01-01T13:00:21.964Z,17.83
2023-01-01T13:02:55.113Z,16.10
2023-01-01T13:05:27.407Z,18.00
2023-01-01T13:08:01.429Z,14.73
2023-01-01T13:10:34.745Z,14.43
2023-01-01T13:13:04.021Z,14.03
2023-01-01T13:15:59.324Z,17.23
2023-01-01T13:18:34.837Z,12.57
2023-01-01T13:21:21.435Z,14.77
2023-01-01T13:23:52.092Z,17.50
2023-01-01T13:26:40.865Z,11.03
2023-01-01T13:29:44.896Z,17.80
2023-01-01T13:32:15.144Z,15.57
2023-01-01T13:35:17.488Z,15.37
2023-01-01T13:37:47.721Z,17.10
2023-01-01T13:40:53.106Z,25.93
2023-01-01T13:43:30.359Z,24.90
2023-01-01T13:46:12.980Z,29.80
2023-01-01T13:49:07.553Z,56.97
2023-01-01T13:52:08.247Z,31.70
2023-01-01T13:55:44.909Z,48.90
2023-01-01T13:58:52.020Z,21.23
2023-01-01T14:01:41.301Z,27.47
2023-01-01T14:04:28.510Z,36.50
2023-01-01T14:07:18.602Z,37.30
2023-01-01T14:09:50.382Z,51.57
2023-01-01T14:12:20.545Z,36.90
2023-01-01T14:14:49.158Z,25.63
2023-01-01T14:17:18.135Z,33.93
2023-01-01T14:19:46.394Z,33.90
2023-01-01T14:22:18.455Z,28.83
2023-01-01T14:24:48.541Z,34.50
2023-01-01T14:27:21.827Z,32.87
2023-01-01T14:29:52.483Z,33.90
2023-01-01T14:32:25.742Z,30.20
2023-01-01T14:35:01.806Z,35.03
2023-01-01T14:37:31.177Z,29.93
2023-01-01T14:40:17.468Z,28.83
2023-01-01T14:42:46.720Z,29.10
2023-01-01T14:45:17.728Z,32.33
2023-01-01T14:47:50.380Z,28.70
2023-01-01T14:50:29.116Z,30.43
2023-01-01T14:53:04.067Z,26.57
2023-01-01T14:55:42.917Z,34.47
2023-01-01T14:58:13.630Z,29.07
2023-01-01T15:00:41.867Z,28.43
2023-01-01T15:03:15.625Z,24.20
2023-01-01T15:05:45.444Z,29.17
2023-01-01T15:08:23.170Z,32.73
2023-01-01T15:10:51.601Z,26.33
2023-01-01T15:13:22.770Z,22.27
2023-01-01T15:15:53.284Z,30.20
2023-01-01T15:18:43.273Z,34.83
2023-01-01T15:21:16.973Z,32.83
2023-01-01T15:23:54.906Z,35.70
2023-01-01T15:26:30.349Z,22.40
2023-01-01T15:29:00.236Z,25.67
2023-01-01T15:31:40.475Z,26.10
2023-01-01T15:34:22.594Z,21.70
2023-01-01T15:36:52.754Z,21.63
2023-01-01T15:39:22.828Z,28.97
2023-01-01T15:41:52.507Z,21.33
2023-01-01T15:44:27.953Z,15.57
2023-01-01T15:47:06.957Z,18.47
2023-01-01T15:49:35.093Z,22.43
2023-01-01T15:52:07.457Z,17.07
2023-01-01T15:54:40.003Z,13.57
2023-01-01T15:57:19.353Z,13.40
2023-01-01T15:59:47.672Z,10.20
2023-01-01T16:02:55.552Z,7.47
2023-01-01T16:06:04.453Z,7.03
2023-01-01T16:09:14.026Z,7.93
2023-01-01T16:12:23.950Z,5.80
2023-01-01T16:15:32.560Z,4.23
2023-01-01T16:18:41.114Z,5.77
2023-01-01T16:21:49.722Z,13.50
2023-01-01T16:24:58.328Z,11.67
2023-01-01T16:28:08.639Z,7.90
2023-01-01T16:31:18.864Z,11.07
2023-01-01T16:34:27.523Z,19.27
2023-01-01T16:37:36.143Z,10.80
2023-01-01T16:40:44.684Z,16.00
2023-01-01T16:43:54.516Z,10.73
2023-01-01T16:47:03.134Z,10.57
2023-01-01T16:50:12.781Z,9.43
2023-01-01T16:53:21.379Z,9.10
2023-01-01T16:56:30.907Z,11.50
2023-01-01T16:59:40.823Z,7.57
2023-01-01T17:02:50.692Z,13.70
2023-01-01T17:05:59.433Z,9.40
2023-01-01T17:09:08.569Z,13.20
2023-01-01T17:12:17.113Z,16.97
2023-01-01T17:15:27.047Z,20.47
2023-01-01T17:22:05.536Z,13.93
2023-01-01T17:25:14.103Z,7.43
2023-01-01T17:28:22.625Z,14.00
2023-01-01T17:31:32.662Z,12.90
2023-01-01T17:34:41.314Z,8.90
2023-01-01T17:37:49.926Z,12.47
2023-01-01T17:41:06.078Z,9.70
2023-01-01T17:44:14.652Z,13.50
2023-01-01T17:47:29.200Z,9.47
2023-01-01T17:50:39.431Z,14.30
2023-01-01T17:53:48.697Z,10.90
2023-01-01T17:56:59.239Z,12.50
2023-01-01T18:00:10.546Z,16.30
2023-01-01T18:03:22.656Z,9.20
2023-01-01T18:06:37.178Z,7.23
2023-01-01T18:09:49.065Z,11.90
2023-01-01T18:12:57.786Z,12.93
2023-01-01T18:16:09.773Z,10.57
2023-01-01T18:19:20.728Z,9.27
2023-01-01T18:22:29.251Z,9.70
2023-01-01T18:25:37.862Z,15.80
2023-01-01T18:28:46.476Z,7.37
2023-01-01T18:31:54.997Z,11.20
2023-01-01T18:35:06.442Z,9.77
2023-01-01T18:38:15.114Z,9.03
2023-01-01T18:41:40.028Z,10.87
2023-01-01T18:44:48.719Z,9.20
2023-01-01T18:47:57.250Z,9.80
2023-01-01T18:51:14.813Z,7.00
2023-01-01T18:54:24.637Z,9.70
2023-01-01T18:57:33.230Z,13.03
2023-01-01T19:00:41.833Z,11.00
2023-01-01T19:03:52.480Z,9.23
2023-01-01T19:07:03.510Z,8.00
2023-01-01T19:10:14.346Z,10.00
2023-01-01T19:13:25.365Z,9.83
2023-01-01T19:16:34.907Z,9.50
2023-01-01T19:19:43.580Z,8.07
2023-01-01T19:22:53.424Z,10.00
2023-01-01T19:26:04.999Z,7.87
2023-01-01T19:29:18.374Z,10.97
2023-01-01T19:32:26.930Z,11.83
2023-01-01T19:35:36.148Z,9.37
2023-01-01T19:38:46.078Z,5.40
2023-01-01T19:41:54.608Z,8.30
2023-01-01T19:45:03.139Z,9.10
2023-01-01T19:48:11.688Z,6.77
2023-01-01T19:51:20.841Z,9.10
2023-01-01T19:54:30.763Z,9.43
2023-01-01T19:57:39.383Z,6.00
2023-01-01T20:00:47.951Z,7.00
2023-01-01T20:03:58.565Z,6.13
2023-01-01T20:07:07.356Z,10.00
2023-01-01T20:10:17.577Z,7.60
2023-01-01T20:13:26.504Z,4.77
2023-01-01T20:16:36.290Z,6.60
2023-01-01T20:19:44.930Z,5.83
2023-01-01T20:22:53.485Z,6.23
2023-01-01T20:26:04.002Z,5.90
2023-01-01T20:29:21.211Z,5.60
2023-01-01T20:32:30.247Z,7.77
2023-01-01T20:35:56.554Z,4.60
2023-01-01T20:39:05.132Z,5.23
2023-01-01T20:42:15.031Z,6.77
2023-01-01T20:45:23.671Z,8.20
2023-01-01T20:48:32.233Z,6.27
2023-01-01T20:51:41.175Z,6.83
2023-01-01T20:54:50.419Z,5.73
2023-01-01T20:58:00.245Z,5.63
2023-01-01T21:01:08.852Z,5.70
2023-01-01T21:04:17.670Z,5.10
2023-01-01T21:07:26.218Z,4.27
2023-01-01T21:10:34.782Z,6.80
2023-01-01T21:13:45.448Z,8.10
2023-01-01T21:16:54.085Z,4.30
2023-01-01T21:20:02.639Z,4.97
2023-01-01T21:23:16.567Z,5.60
2023-01-01T21:26:29.550Z,4.23
2023-01-01T21:29:44.922Z,4.70
2023-01-01T21:32:53.555Z,4.57
2023-01-01T21:36:15.221Z,5.67
2023-01-01T21:39:30.190Z,4.60
2023-01-01T21:42:38.751Z,6.10
2023-01-01T21:45:49.123Z,4.63
2023-01-01T21:49:01.837Z,7.60
2023-01-01T21:52:20.113Z,4.33
2023-01-01T21:55:49.986Z,4.70
2023-01-01T21:59:29.383Z,4.37
2023-01-01T22:02:40.637Z,3.73
2023-01-01T22:05:53.052Z,5.43
2023-01-01T22:09:19.369Z,4.63
2023-01-01T22:12:30.142Z,4.67
2023-01-01T22:15:41.517Z,3.90
2023-01-01T22:18:51.414Z,5.20
2023-01-01T22:22:00.810Z,6.63
2023-01-01T22:25:25.185Z,3.90
2023-01-01T22:28:42.305Z,6.60
2023-01-01T22:32:00.729Z,4.00
2023-01-01T22:35:20.088Z,4.53
2023-01-01T22:38:34.226Z,5.50
2023-01-01T22:41:43.652Z,4.90
2023-01-01T22:44:59.263Z,7.73
2023-01-01T22:48:12.095Z,4.70
2023-01-01T22:51:27.133Z,3.23
2023-01-01T22:54:35.684Z,7.40
2023-01-01T22:57:46.031Z,4.75
2023-01-01T23:00:28.797Z,6.07
2023-01-01T23:02:56.855Z,6.63
2023-01-01T23:05:24.963Z,5.27
2023-01-01T23:07:54.390Z,4.43
2023-01-01T23:10:22.721Z,7.73
2023-01-01T23:12:50.796Z,6.83
2023-01-01T23:15:36.423Z,4.45
2023-01-01T23:18:04.838Z,4.70
2023-01-01T23:20:33.078Z,3.83
2023-01-01T23:23:02.423Z,3.80
2023-01-01T23:25:30.409Z,14.23
2023-01-01T23:27:58.464Z,6.53
2023-01-01T23:30:26.597Z,3.93
2023-01-01T23:33:39.168Z,4.90
2023-01-01T23:36:08.511Z,4.80
2023-01-01T23:38:37.526Z,4.97
2023-01-01T23:41:06.111Z,3.87
2023-01-01T23:43:39.407Z,3.40
2023-01-01T23:46:11.241Z,4.73
2023-01-01T23:48:41.133Z,2.93
2023-01-01T23:51:09.422Z,4.10
2023-01-01T23:53:37.331Z,3.93
2023-01-01T23:56:06.084Z,3.73
2023-01-01T23:58:34.121Z,4.90
